createdAt,value
2019-02-18T00:01:51.858Z,61.50
2019-02-18T00:04:40.896Z,61.50
2019-02-18T00:07:29.088Z,61.60
2019-02-18T00:10:18.284Z,61.50
2019-02-18T00:13:09.603Z,61.20
2019-02-18T00:15:58.092Z,61.70
2019-02-18T00:18:47.957Z,61.70
2019-02-18T00:21:46.854Z,61.70
2019-02-18T00:24:36.426Z,61.80
2019-02-18T00:30:19.430Z,61.70
2019-02-18T00:33:08.938Z,61.70
2019-02-18T00:35:57.907Z,61.80
2019-02-18T00:41:37.981Z,61.80
2019-02-18T00:44:27.083Z,61.90
2019-02-18T00:47:15.927Z,61.70
2019-02-18T00:52:55.941Z,61.90
2019-02-18T00:55:44.699Z,62.00
2019-02-18T00:58:32.444Z,62.10
2019-02-18T01:04:14.921Z,62.10
2019-02-18T01:07:07.979Z,62.10
2019-02-18T01:09:56.345Z,62.10
2019-02-18T01:19:08.578Z,62.10
2019-02-18T01:21:56.761Z,62.50
2019-02-18T01:24:45.440Z,63.20
2019-02-18T01:27:34.000Z,62.50
2019-02-18T01:30:23.323Z,62.80
2019-02-18T01:33:14.640Z,62.80
2019-02-18T01:36:03.150Z,63.50
2019-02-18T01:38:53.504Z,62.70
2019-02-18T01:41:43.315Z,62.40
2019-02-18T01:44:32.949Z,62.40
2019-02-18T01:47:21.979Z,62.30
2019-02-18T01:56:27.424Z,62.90
2019-02-18T01:59:15.561Z,62.40
2019-02-18T02:02:03.981Z,62.30
2019-02-18T02:04:52.140Z,62.20
2019-02-18T02:07:40.655Z,62.40
2019-02-18T02:10:29.519Z,62.50
2019-02-18T02:16:05.029Z,62.50
2019-02-18T02:18:53.457Z,62.40
2019-02-18T02:21:42.592Z,62.50
2019-02-18T02:24:31.045Z,62.60
2019-02-18T02:27:19.728Z,62.50
2019-02-18T02:30:09.612Z,62.40
2019-02-18T02:32:57.520Z,62.70
2019-02-18T02:35:45.950Z,62.70
2019-02-18T02:38:34.576Z,62.70
2019-02-18T02:44:16.201Z,62.80
2019-02-18T02:47:04.796Z,62.60
2019-02-18T02:49:53.471Z,62.70
2019-02-18T02:52:41.864Z,62.40
2019-02-18T02:55:30.333Z,62.70
2019-02-18T02:58:18.711Z,62.70
2019-02-18T03:01:07.452Z,62.80
2019-02-18T03:03:55.892Z,62.90
2019-02-18T03:09:31.167Z,62.20
2019-02-18T03:12:19.541Z,63.00
2019-02-18T03:15:09.086Z,63.00
2019-02-18T03:17:59.882Z,63.10
2019-02-18T03:20:48.304Z,63.20
2019-02-18T03:26:28.377Z,63.10
2019-02-18T03:32:11.220Z,63.10
2019-02-18T03:35:00.669Z,63.20
2019-02-18T03:37:49.596Z,63.20
2019-02-18T03:43:29.690Z,63.20
2019-02-18T03:46:18.072Z,63.30
2019-02-18T03:49:06.926Z,63.40
2019-02-18T03:51:55.510Z,63.30
2019-02-18T03:57:35.740Z,63.30
2019-02-18T04:00:24.084Z,63.40
2019-02-18T04:03:12.335Z,63.30
2019-02-18T04:06:00.907Z,63.40
2019-02-18T04:08:49.186Z,63.40
2019-02-18T04:14:42.915Z,64.00
2019-02-18T04:17:31.571Z,63.60
2019-02-18T04:23:15.486Z,63.50
2019-02-18T04:26:04.629Z,63.50
2019-02-18T04:28:55.921Z,62.80
2019-02-18T04:34:36.615Z,63.50
2019-02-18T04:37:24.806Z,63.40
2019-02-18T04:40:13.235Z,63.40
2019-02-18T04:43:01.759Z,63.60
2019-02-18T04:45:49.917Z,63.40
2019-02-18T04:48:38.224Z,63.50
2019-02-18T04:51:27.009Z,63.60
2019-02-18T04:54:15.140Z,63.00
2019-02-18T04:57:03.562Z,63.60
2019-02-18T04:59:51.382Z,63.70
2019-02-18T05:02:39.490Z,63.70
2019-02-18T05:05:28.018Z,63.70
2019-02-18T05:08:16.455Z,63.30
2019-02-18T05:11:04.228Z,63.60
2019-02-18T05:13:53.084Z,63.60
2019-02-18T05:22:39.680Z,62.50
2019-02-18T05:28:22.779Z,62.50
2019-02-18T05:31:11.704Z,63.50
2019-02-18T05:33:59.421Z,63.60
2019-02-18T05:36:47.230Z,63.50
2019-02-18T05:39:37.236Z,63.60
2019-02-18T05:42:25.799Z,63.60
2019-02-18T05:45:15.095Z,63.60
2019-02-18T05:48:03.135Z,63.70
2019-02-18T05:50:51.992Z,63.70
2019-02-18T05:53:40.288Z,63.80
2019-02-18T05:56:29.533Z,64.60
2019-02-18T05:59:21.253Z,63.70
2019-02-18T06:02:09.071Z,63.70
2019-02-18T06:04:57.622Z,63.80
2019-02-18T06:07:45.869Z,63.90
2019-02-18T06:10:34.092Z,63.90
2019-02-18T06:13:23.219Z,63.50
2019-02-18T06:16:11.281Z,64.00
2019-02-18T06:19:00.016Z,63.90
2019-02-18T06:21:48.422Z,63.90
2019-02-18T06:24:36.973Z,64.00
2019-02-18T06:27:24.988Z,63.90
2019-02-18T06:30:13.108Z,64.00
2019-02-18T06:33:01.299Z,64.10
2019-02-18T06:35:49.140Z,63.80
2019-02-18T06:44:09.262Z,62.90
2019-02-18T06:49:45.825Z,63.30
2019-02-18T06:52:34.281Z,64.10
2019-02-18T06:55:22.185Z,64.30
2019-02-18T07:01:59.715Z,64.20
2019-02-18T07:13:38.326Z,64.00
2019-02-18T07:16:26.242Z,64.30
2019-02-18T07:19:14.721Z,64.40
2019-02-18T07:22:02.725Z,64.40
2019-02-18T07:24:50.774Z,64.40
2019-02-18T07:27:39.300Z,64.50
2019-02-18T07:30:27.022Z,64.50
2019-02-18T07:33:15.510Z,64.60
2019-02-18T07:36:04.132Z,64.30
2019-02-18T07:38:52.071Z,64.70
2019-02-18T07:41:40.577Z,64.60
2019-02-18T07:44:31.422Z,64.80
2019-02-18T07:47:19.850Z,64.70
2019-02-18T07:50:08.546Z,65.10
2019-02-18T07:52:56.802Z,65.00
2019-02-18T07:55:44.766Z,65.00
2019-02-18T07:58:32.918Z,65.20
2019-02-18T08:01:20.932Z,65.30
2019-02-18T08:04:08.871Z,65.30
2019-02-18T08:06:57.239Z,65.40
2019-02-18T08:09:45.195Z,65.40
2019-02-18T08:12:33.625Z,65.50
2019-02-18T08:15:21.857Z,65.40
2019-02-18T08:18:09.835Z,65.20
2019-02-18T08:20:57.891Z,65.50
2019-02-18T08:23:46.345Z,65.60
2019-02-18T08:26:34.515Z,65.70
2019-02-18T08:29:22.523Z,66.60
2019-02-18T08:32:11.083Z,65.90
2019-02-18T08:34:59.176Z,66.00
2019-02-18T08:37:47.148Z,66.10
2019-02-18T08:40:35.194Z,66.50
2019-02-18T08:43:23.061Z,66.40
2019-02-18T08:46:10.972Z,66.70
2019-02-18T08:48:59.167Z,66.80
2019-02-18T08:51:47.080Z,67.10
2019-02-18T08:54:35.153Z,67.20
2019-02-18T08:57:24.487Z,67.30
2019-02-18T09:00:12.470Z,67.30
2019-02-18T09:03:00.327Z,67.40
2019-02-18T09:05:48.443Z,67.20
2019-02-18T09:08:36.447Z,67.20
2019-02-18T09:11:24.351Z,67.00
2019-02-18T09:14:12.393Z,67.10
2019-02-18T09:17:00.912Z,67.10
2019-02-18T09:19:48.910Z,67.00
2019-02-18T09:26:03.474Z,66.90
2019-02-18T09:28:51.864Z,66.50
2019-02-18T09:31:39.859Z,66.50
2019-02-18T09:34:28.152Z,66.30
2019-02-18T09:37:16.474Z,66.20
2019-02-18T09:40:05.242Z,66.10
2019-02-18T09:42:53.115Z,65.90
2019-02-18T09:45:41.177Z,65.70
2019-02-18T09:48:29.036Z,65.40
2019-02-18T09:51:17.334Z,65.50
2019-02-18T09:54:05.421Z,64.60
2019-02-18T09:56:53.290Z,64.20
2019-02-18T09:59:41.248Z,62.70
2019-02-18T10:02:30.143Z,62.40
2019-02-18T10:05:18.054Z,61.90
2019-02-18T10:08:06.460Z,61.40
2019-02-18T10:10:56.132Z,60.90
2019-02-18T10:13:44.472Z,60.50
2019-02-18T10:16:33.094Z,60.60
2019-02-18T10:19:21.538Z,60.00
2019-02-18T10:22:09.388Z,59.70
2019-02-18T10:24:58.079Z,59.20
2019-02-18T10:27:45.915Z,58.90
2019-02-18T10:30:33.347Z,58.50
2019-02-18T10:33:22.008Z,58.20
2019-02-18T10:36:10.129Z,57.60
2019-02-18T10:38:58.835Z,57.50
2019-02-18T10:41:47.569Z,57.10
2019-02-18T10:44:35.559Z,56.50
2019-02-18T10:47:23.745Z,56.10
2019-02-18T10:50:11.705Z,55.80
2019-02-18T10:53:00.126Z,55.30
2019-02-18T10:55:48.633Z,55.10
2019-02-18T10:58:36.900Z,55.20
2019-02-18T11:01:25.543Z,54.90
2019-02-18T11:04:14.167Z,54.70
2019-02-18T11:07:02.230Z,54.40
2019-02-18T11:09:50.088Z,54.20
2019-02-18T11:12:38.539Z,54.00
2019-02-18T11:18:46.231Z,53.30
2019-02-18T11:21:34.250Z,53.10
2019-02-18T11:24:22.262Z,52.70
2019-02-18T11:27:10.356Z,52.30
2019-02-18T11:29:58.528Z,51.80
2019-02-18T11:32:46.318Z,51.70
2019-02-18T11:35:34.948Z,51.50
2019-02-18T11:38:23.307Z,51.30
2019-02-18T11:41:11.119Z,50.90
2019-02-18T11:43:59.685Z,50.70
2019-02-18T11:46:48.167Z,50.40
2019-02-18T11:49:37.387Z,50.20
2019-02-18T11:52:25.612Z,50.10
2019-02-18T11:55:13.728Z,50.00
2019-02-18T11:58:02.355Z,50.00
2019-02-18T12:00:50.583Z,49.70
2019-02-18T12:03:39.096Z,49.60
2019-02-18T12:06:27.135Z,49.40
2019-02-18T12:09:17.728Z,49.20
2019-02-18T12:12:05.860Z,49.20
2019-02-18T12:14:53.879Z,49.00
2019-02-18T12:17:42.145Z,48.80
2019-02-18T12:20:30.835Z,48.60
2019-02-18T12:23:18.912Z,48.60
2019-02-18T12:26:07.211Z,48.50
2019-02-18T12:28:55.197Z,48.40
2019-02-18T12:31:43.021Z,48.00
2019-02-18T12:34:30.977Z,47.90
2019-02-18T12:37:19.059Z,47.90
2019-02-18T12:40:07.727Z,47.80
2019-02-18T12:42:56.348Z,47.60
2019-02-18T12:45:44.823Z,47.50
2019-02-18T12:48:35.277Z,47.70
2019-02-18T12:51:22.808Z,47.30
2019-02-18T12:54:10.804Z,47.00
2019-02-18T12:56:59.134Z,46.80
2019-02-18T12:59:47.764Z,46.60
2019-02-18T13:02:43.753Z,46.60
2019-02-18T13:05:27.323Z,46.20
2019-02-18T13:08:15.938Z,45.80
2019-02-18T13:11:04.162Z,45.60
2019-02-18T13:13:52.176Z,45.40
2019-02-18T13:16:40.207Z,45.40
2019-02-18T13:19:28.503Z,45.30
2019-02-18T13:22:16.580Z,45.00
2019-02-18T13:25:04.760Z,45.40
2019-02-18T13:27:52.804Z,45.10
2019-02-18T13:30:40.904Z,45.00
2019-02-18T13:33:29.382Z,44.70
2019-02-18T13:36:17.756Z,44.60
2019-02-18T13:39:06.149Z,44.50
2019-02-18T13:41:54.392Z,44.30
2019-02-18T13:44:42.621Z,44.20
2019-02-18T13:47:31.364Z,44.20
2019-02-18T13:50:20.148Z,44.30
2019-02-18T13:53:08.367Z,43.90
2019-02-18T13:55:56.984Z,43.90
2019-02-18T13:58:44.855Z,43.90
2019-02-18T14:01:33.382Z,43.60
2019-02-18T14:04:21.844Z,43.30
2019-02-18T14:07:10.385Z,43.10
2019-02-18T14:09:58.997Z,42.90
2019-02-18T14:12:47.096Z,42.90
2019-02-18T14:15:35.443Z,42.70
2019-02-18T14:18:23.666Z,42.90
2019-02-18T14:21:11.876Z,42.80
2019-02-18T14:23:59.635Z,42.60
2019-02-18T14:26:47.607Z,42.80
2019-02-18T14:29:36.126Z,42.90
2019-02-18T14:32:25.086Z,42.80
2019-02-18T14:35:13.247Z,42.90
2019-02-18T14:38:01.021Z,43.00
2019-02-18T14:40:49.637Z,43.00
2019-02-18T14:43:38.425Z,43.00
2019-02-18T14:46:26.552Z,43.10
2019-02-18T14:49:14.777Z,43.10
2019-02-18T14:52:03.198Z,43.10
2019-02-18T14:54:51.662Z,43.30
2019-02-18T14:57:40.470Z,43.30
2019-02-18T15:00:28.970Z,42.70
2019-02-18T15:03:17.528Z,44.00
2019-02-18T15:06:05.697Z,43.40
2019-02-18T15:08:54.008Z,43.50
2019-02-18T15:11:42.419Z,43.50
2019-02-18T15:14:30.605Z,43.60
2019-02-18T15:17:18.493Z,43.70
2019-02-18T15:20:06.758Z,44.60
2019-02-18T15:25:40.845Z,44.40
2019-02-18T15:28:29.252Z,44.00
2019-02-18T15:31:17.890Z,44.10
2019-02-18T15:34:06.630Z,44.10
2019-02-18T15:36:54.576Z,44.10
2019-02-18T15:39:42.866Z,44.20
2019-02-18T15:42:31.879Z,44.30
2019-02-18T15:45:20.402Z,44.30
2019-02-18T15:48:08.321Z,44.40
2019-02-18T15:50:56.714Z,44.50
2019-02-18T15:53:44.855Z,44.70
2019-02-18T15:56:33.276Z,45.40
2019-02-18T15:59:21.327Z,44.90
2019-02-18T16:02:09.315Z,45.20
2019-02-18T16:04:57.211Z,45.20
2019-02-18T16:07:45.292Z,45.40
2019-02-18T16:10:33.564Z,45.50
2019-02-18T16:13:21.880Z,45.60
2019-02-18T16:16:10.460Z,45.90
2019-02-18T16:18:58.464Z,46.00
2019-02-18T16:21:46.719Z,46.20
2019-02-18T16:24:34.572Z,46.60
2019-02-18T16:27:22.580Z,46.60
2019-02-18T16:30:10.379Z,46.70
2019-02-18T16:32:58.428Z,46.90
2019-02-18T16:35:46.613Z,47.20
2019-02-18T16:38:35.081Z,47.20
2019-02-18T16:41:23.325Z,47.30
2019-02-18T16:44:11.839Z,47.50
2019-02-18T16:46:59.729Z,47.70
2019-02-18T16:49:47.833Z,48.80
2019-02-18T16:52:36.530Z,48.90
2019-02-18T16:55:24.944Z,49.20
2019-02-18T16:58:13.831Z,49.20
2019-02-18T17:01:02.077Z,49.40
2019-02-18T17:06:43.169Z,49.70
2019-02-18T17:09:31.644Z,50.00
2019-02-18T17:12:22.420Z,50.00
2019-02-18T17:15:10.507Z,50.20
2019-02-18T17:17:58.413Z,50.30
2019-02-18T17:23:32.223Z,50.90
2019-02-18T17:29:13.294Z,50.80
2019-02-18T17:34:54.631Z,51.10
2019-02-18T17:40:35.682Z,51.50
2019-02-18T17:43:26.600Z,51.50
2019-02-18T17:46:14.980Z,51.60
2019-02-18T17:49:03.498Z,51.60
2019-02-18T17:51:51.872Z,51.80
2019-02-18T17:54:40.802Z,51.90
2019-02-18T17:57:29.418Z,52.00
2019-02-18T18:00:18.507Z,52.10
2019-02-18T18:03:06.399Z,52.20
2019-02-18T18:05:55.018Z,52.40
2019-02-18T18:08:43.492Z,52.50
2019-02-18T18:11:32.249Z,52.60
2019-02-18T18:14:20.509Z,52.60
2019-02-18T18:17:09.121Z,52.70
2019-02-18T18:19:57.024Z,52.90
2019-02-18T18:22:45.246Z,52.90
2019-02-18T18:25:33.344Z,53.00
2019-02-18T18:28:21.728Z,53.20
2019-02-18T18:31:10.325Z,53.30
2019-02-18T18:33:58.215Z,53.40
2019-02-18T18:36:46.387Z,53.50
2019-02-18T18:39:34.405Z,53.60
2019-02-18T18:42:22.431Z,53.70
2019-02-18T18:45:10.549Z,53.20
2019-02-18T18:47:58.827Z,53.90
2019-02-18T18:50:47.501Z,53.90
2019-02-18T18:53:35.441Z,54.00
2019-02-18T18:56:23.504Z,54.70
2019-02-18T18:59:12.109Z,54.10
2019-02-18T19:02:00.219Z,54.20
2019-02-18T19:04:48.292Z,54.20
2019-02-18T19:07:37.056Z,54.20
2019-02-18T19:10:25.215Z,54.30
2019-02-18T19:22:08.533Z,54.40
2019-02-18T19:22:49.619Z,54.30
2019-02-18T19:24:56.838Z,54.60
2019-02-18T19:27:45.274Z,54.60
2019-02-18T19:30:34.117Z,54.70
2019-02-18T19:33:23.029Z,54.70
2019-02-18T19:36:11.338Z,54.80
2019-02-18T19:38:59.396Z,54.80
2019-02-18T19:41:47.953Z,54.80
2019-02-18T19:44:36.691Z,54.80
2019-02-18T19:47:24.914Z,54.90
2019-02-18T19:50:13.537Z,55.70
2019-02-18T19:53:01.273Z,55.20
2019-02-18T19:55:49.981Z,55.20
2019-02-18T19:58:38.615Z,55.20
2019-02-18T20:01:41.824Z,55.20
2019-02-18T20:04:29.814Z,55.00
2019-02-18T20:07:18.526Z,55.30
2019-02-18T20:10:07.126Z,55.30
2019-02-18T20:12:55.331Z,55.30
2019-02-18T20:15:43.921Z,55.30
2019-02-18T20:18:32.540Z,55.40
2019-02-18T20:21:20.214Z,55.60
2019-02-18T20:24:09.029Z,55.60
2019-02-18T20:26:58.390Z,55.60
2019-02-18T20:29:46.947Z,55.70
2019-02-18T20:32:35.256Z,55.70
2019-02-18T20:35:23.944Z,55.80
2019-02-18T20:38:12.079Z,55.90
2019-02-18T20:41:00.647Z,55.50
2019-02-18T20:43:49.600Z,55.80
2019-02-18T20:46:38.024Z,56.00
2019-02-18T20:49:26.331Z,56.00
2019-02-18T20:52:16.947Z,56.00
2019-02-18T20:55:05.804Z,56.10
2019-02-18T20:57:53.815Z,56.00
2019-02-18T21:00:42.497Z,56.20
2019-02-18T21:03:32.697Z,56.30
2019-02-18T21:09:12.590Z,56.30
2019-02-18T21:12:00.646Z,56.30
2019-02-18T21:14:48.564Z,56.30
2019-02-18T21:17:39.328Z,56.40
2019-02-18T21:20:27.927Z,56.40
2019-02-18T21:23:16.939Z,57.10
2019-02-18T21:26:05.206Z,56.40
2019-02-18T21:28:56.517Z,56.40
2019-02-18T21:34:37.160Z,56.60
2019-02-18T21:37:24.914Z,56.70
2019-02-18T21:40:13.356Z,56.60
2019-02-18T21:43:01.527Z,56.80
2019-02-18T21:45:50.249Z,56.80
2019-02-18T21:48:38.448Z,56.90
2019-02-18T21:51:27.064Z,56.90
2019-02-18T21:54:15.686Z,56.90
2019-02-18T21:57:03.604Z,57.10
2019-02-18T21:59:52.632Z,56.90
2019-02-18T22:08:37.394Z,57.20
2019-02-18T22:14:43.205Z,57.10
2019-02-18T22:17:10.146Z,57.20
2019-02-18T22:19:58.724Z,56.60
2019-02-18T22:22:46.627Z,57.40
2019-02-18T22:25:35.129Z,57.30
2019-02-18T22:28:22.917Z,57.30
2019-02-18T22:31:10.875Z,58.10
2019-02-18T22:33:59.071Z,57.40
2019-02-18T22:36:46.977Z,57.50
2019-02-18T22:39:34.882Z,57.50
2019-02-18T22:42:22.813Z,57.60
2019-02-18T22:45:11.109Z,57.60
2019-02-18T22:47:59.095Z,57.60
2019-02-18T22:50:47.559Z,57.30
2019-02-18T22:53:38.934Z,57.70
2019-02-18T22:56:27.296Z,57.10
2019-02-18T22:59:15.369Z,57.80
2019-02-18T23:02:03.462Z,57.80
2019-02-18T23:04:51.325Z,57.90
2019-02-18T23:07:39.232Z,58.60
2019-02-18T23:10:27.592Z,57.90
2019-02-18T23:13:15.592Z,58.10
2019-02-18T23:16:03.988Z,58.00
2019-02-18T23:18:51.835Z,57.90
2019-02-18T23:21:40.739Z,58.20
2019-02-18T23:24:28.866Z,58.20
2019-02-18T23:27:16.783Z,58.20
2019-02-18T23:30:04.650Z,58.20
2019-02-18T23:32:52.754Z,58.20
2019-02-18T23:35:40.961Z,58.20
2019-02-18T23:38:28.839Z,58.20
2019-02-18T23:41:17.147Z,58.20
2019-02-18T23:44:05.423Z,58.30
2019-02-18T23:46:53.797Z,58.30
2019-02-18T23:49:42.453Z,58.30
2019-02-18T23:52:30.942Z,58.40
2019-02-18T23:55:19.512Z,58.50
2019-02-18T23:58:07.570Z,58.60
